sensor_id;sensor_type;location;lat;lon;timestamp;pressure;altitude;pressure_sealevel;temperature;humidity
31096;BME280;17749;51.962;8.560;2023-08-01T05:02:21;98264.09;;;15.19;100.00
31096;BME280;17749;51.962;8.560;2023-08-01T05:04:48;98267.34;;;15.23;100.00
31096;BME280;17749;51.962;8.560;2023-08-01T05:07:15;98265.53;;;15.23;100.00
31096;BME280;17749;51.962;8.560;2023-08-01T05:09:42;98264.97;;;15.29;100.00
31096;BME280;17749;51.962;8.560;2023-08-01T05:12:09;98264.97;;;15.29;100.00
31096;BME280;17749;51.962;8.560;2023-08-01T05:14:36;98271.03;;;15.31;100.00
31096;BME280;17749;51.962;8.560;2023-08-01T05:17:03;98270.94;;;15.33;100.00
31096;BME280;17749;51.962;8.560;2023-08-01T05:19:30;98272.50;;;15.36;100.00
31096;BME280;17749;51.962;8.560;2023-08-01T05:21:57;98268.81;;;15.37;100.00
31096;BME280;17749;51.962;8.560;2023-08-01T05:24:24;98274.88;;;15.39;100.00
31096;BME280;17749;51.962;8.560;2023-08-01T05:26:50;98270.38;;;15.39;100.00
31096;BME280;17749;51.962;8.560;2023-08-01T05:29:17;98281.09;;;15.39;100.00
31096;BME280;17749;51.962;8.560;2023-08-01T05:31:44;98273.91;;;15.40;100.00
31096;BME280;17749;51.962;8.560;2023-08-01T05:34:11;98280.69;;;15.44;100.00
31096;BME280;17749;51.962;8.560;2023-08-01T05:36:37;98277.16;;;15.43;100.00
31096;BME280;17749;51.962;8.560;2023-08-01T05:39:05;98281.41;;;15.46;100.00
31096;BME280;17749;51.962;8.560;2023-08-01T05:41:32;98287.75;;;15.45;100.00
31096;BME280;17749;51.962;8.560;2023-08-01T05:43:59;98291.53;;;15.42;100.00
31096;BME280;17749;51.962;8.560;2023-08-01T05:46:26;98293.25;;;15.43;100.00
31096;BME280;17749;51.962;8.560;2023-08-01T05:48:53;98301.16;;;15.45;100.00
31096;BME280;17749;51.962;8.560;2023-08-01T05:51:20;98300.00;;;15.38;100.00
31096;BME280;17749;51.962;8.560;2023-08-01T05:53:47;98300.28;;;15.34;100.00
31096;BME280;17749;51.962;8.560;2023-08-01T05:56:14;98310.16;;;15.34;100.00
31096;BME280;17749;51.962;8.560;2023-08-01T05:58:40;98313.94;;;15.31;100.00
31096;BME280;17749;51.962;8.560;2023-08-01T06:01:09;98309.88;;;15.37;100.00
31096;BME280;17749;51.962;8.560;2023-08-01T06:03:37;98306.06;;;15.40;100.00
31096;BME280;17749;51.962;8.560;2023-08-01T06:06:04;98304.00;;;15.43;100.00
31096;BME280;17749;51.962;8.560;2023-08-01T06:08:31;98304.84;;;15.44;100.00
31096;BME280;17749;51.962;8.560;2023-08-01T06:10:58;98314.72;;;15.43;100.00
31096;BME280;17749;51.962;8.560;2023-08-01T06:13:25;98311.31;;;15.41;100.00
31096;BME280;17749;51.962;8.560;2023-08-01T06:15:52;98318.53;;;15.41;100.00
31096;BME280;17749;51.962;8.560;2023-08-01T06:18:20;98325.84;;;15.39;100.00
31096;BME280;17749;51.962;8.560;2023-08-01T06:20:47;98320.03;;;15.33;100.00
31096;BME280;17749;51.962;8.560;2023-08-01T06:23:14;98334.16;;;15.36;100.00
31096;BME280;17749;51.962;8.560;2023-08-01T06:25:41;98329.91;;;15.33;100.00
31096;BME280;17749;51.962;8.560;2023-08-01T06:28:08;98330.22;;;15.40;100.00
31096;BME280;17749;51.962;8.560;2023-08-01T06:30:35;98328.56;;;15.48;100.00
31096;BME280;17749;51.962;8.560;2023-08-01T06:33:02;98329.41;;;15.49;100.00
31096;BME280;17749;51.962;8.560;2023-08-01T06:35:29;98333.50;;;15.53;100.00
31096;BME280;17749;51.962;8.560;2023-08-01T06:37:56;98337.22;;;15.62;100.00
31096;BME280;17749;51.962;8.560;2023-08-01T06:40:23;98336.03;;;15.75;100.00
31096;BME280;17749;51.962;8.560;2023-08-01T06:42:50;98334.34;;;15.84;100.00
31096;BME280;17749;51.962;8.560;2023-08-01T06:45:17;98336.31;;;15.92;100.00
31096;BME280;17749;51.962;8.560;2023-08-01T06:47:44;98332.66;;;16.03;100.00
31096;BME280;17749;51.962;8.560;2023-08-01T06:50:11;98335.50;;;16.11;100.00
31096;BME280;17749;51.962;8.560;2023-08-01T06:52:38;98337.22;;;16.21;100.00
31096;BME280;17749;51.962;8.560;2023-08-01T06:55:05;98333.13;;;16.27;100.00
31096;BME280;17749;51.962;8.560;2023-08-01T06:57:32;98345.97;;;16.24;100.00
31096;BME280;17749;51.962;8.560;2023-08-01T06:59:59;98340.91;;;16.20;100.00
31096;BME280;17749;51.962;8.560;2023-08-01T07:02:26;98345.84;;;16.15;100.00
31096;BME280;17749;51.962;8.560;2023-08-01T07:04:54;98351.06;;;16.17;100.00
31096;BME280;17749;51.962;8.560;2023-08-01T07:07:21;98352.78;;;16.28;100.00
31096;BME280;17749;51.962;8.560;2023-08-01T07:09:48;98352.22;;;16.34;100.00
31096;BME280;17749;51.962;8.560;2023-08-01T07:12:15;98353.91;;;16.35;100.00
31096;BME280;17749;51.962;8.560;2023-08-01T07:14:42;98361.41;;;16.31;100.00
31096;BME280;17749;51.962;8.560;2023-08-01T07:17:09;98357.16;;;16.29;100.00
31096;BME280;17749;51.962;8.560;2023-08-01T07:19:36;98361.69;;;16.28;100.00
31096;BME280;17749;51.962;8.560;2023-08-01T07:22:03;98365.22;;;16.29;100.00
31096;BME280;17749;51.962;8.560;2023-08-01T07:24:30;98363.38;;;16.19;100.00
31096;BME280;17749;51.962;8.560;2023-08-01T07:26:57;98366.31;;;16.07;100.00
31096;BME280;17749;51.962;8.560;2023-08-01T07:29:24;98367.44;;;16.04;100.00
31096;BME280;17749;51.962;8.560;2023-08-01T07:31:51;98369.84;;;16.07;100.00
31096;BME280;17749;51.962;8.560;2023-08-01T07:34:18;98364.47;;;16.07;100.00
31096;BME280;17749;51.962;8.560;2023-08-01T07:36:47;98367.16;;;16.07;100.00
31096;BME280;17749;51.962;8.560;2023-08-01T07:39:16;98372.25;;;16.10;100.00
31096;BME280;17749;51.962;8.560;2023-08-01T07:41:43;98367.16;;;16.07;100.00
31096;BME280;17749;51.962;8.560;2023-08-01T07:44:10;98364.91;;;16.12;100.00
31096;BME280;17749;51.962;8.560;2023-08-01T07:46:37;98367.19;;;16.65;100.00
31096;BME280;17749;51.962;8.560;2023-08-01T07:49:04;98364.31;;;17.16;100.00
31096;BME280;17749;51.962;8.560;2023-08-01T07:51:31;98366.47;;;17.49;100.00
31096;BME280;17749;51.962;8.560;2023-08-01T07:54:00;98368.63;;;17.46;100.00
31096;BME280;17749;51.962;8.560;2023-08-01T07:56:27;98374.13;;;17.44;100.00
31096;BME280;17749;51.962;8.560;2023-08-01T07:58:54;98367.88;;;17.53;100.00
31096;BME280;17749;51.962;8.560;2023-08-01T08:01:21;98367.06;;;17.43;100.00
31096;BME280;17749;51.962;8.560;2023-08-01T08:03:48;98375.84;;;17.45;100.00
31096;BME280;17749;51.962;8.560;2023-08-01T08:06:15;98382.88;;;17.56;100.00
31096;BME280;17749;51.962;8.560;2023-08-01T08:08:42;98377.16;;;17.69;100.00
31096;BME280;17749;51.962;8.560;2023-08-01T08:11:09;98372.94;;;17.66;100.00
31096;BME280;17749;51.962;8.560;2023-08-01T08:13:36;98372.84;;;17.58;100.00
31096;BME280;17749;51.962;8.560;2023-08-01T08:16:03;98374.72;;;17.85;100.00
31096;BME280;17749;51.962;8.560;2023-08-01T08:18:31;98376.44;;;18.04;100.00
31096;BME280;17749;51.962;8.560;2023-08-01T08:20:58;98370.56;;;18.18;100.00
31096;BME280;17749;51.962;8.560;2023-08-01T08:23:25;98366.81;;;18.02;100.00
31096;BME280;17749;51.962;8.560;2023-08-01T08:25:53;98371.63;;;17.80;100.00
31096;BME280;17749;51.962;8.560;2023-08-01T08:28:31;98367.72;;;17.92;100.00
31096;BME280;17749;51.962;8.560;2023-08-01T08:30:59;98366.31;;;18.70;100.00
31096;BME280;17749;51.962;8.560;2023-08-01T08:33:27;98367.34;;;18.87;100.00
31096;BME280;17749;51.962;8.560;2023-08-01T08:35:54;98361.59;;;19.08;100.00
31096;BME280;17749;51.962;8.560;2023-08-01T08:38:21;98359.31;;;18.95;100.00
31096;BME280;17749;51.962;8.560;2023-08-01T08:41:08;98355.91;;;18.57;100.00
31096;BME280;17749;51.962;8.560;2023-08-01T08:43:36;98361.91;;;18.15;100.00
31096;BME280;17749;51.962;8.560;2023-08-01T08:46:04;98363.81;;;17.77;100.00
31096;BME280;17749;51.962;8.560;2023-08-01T08:48:32;98370.34;;;17.37;100.00
31096;BME280;17749;51.962;8.560;2023-08-01T08:51:00;98378.34;;;17.19;100.00
31096;BME280;17749;51.962;8.560;2023-08-01T08:53:27;98384.44;;;17.02;100.00
31096;BME280;17749;51.962;8.560;2023-08-01T08:55:55;98379.94;;;16.93;100.00
31096;BME280;17749;51.962;8.560;2023-08-01T08:58:22;98385.88;;;16.96;100.00
31096;BME280;17749;51.962;8.560;2023-08-01T09:00:50;98387.56;;;16.97;100.00
31096;BME280;17749;51.962;8.560;2023-08-01T09:03:16;98392.09;;;16.97;100.00
31096;BME280;17749;51.962;8.560;2023-08-01T09:05:45;98399.03;;;16.99;100.00
31096;BME280;17749;51.962;8.560;2023-08-01T09:08:19;98389.56;;;16.95;100.00
31096;BME280;17749;51.962;8.560;2023-08-01T09:10:47;98385.03;;;16.67;100.00
31096;BME280;17749;51.962;8.560;2023-08-01T09:13:15;98400.00;;;16.59;100.00
31096;BME280;17749;51.962;8.560;2023-08-01T09:15:42;98387.00;;;16.64;100.00
31096;BME280;17749;51.962;8.560;2023-08-01T09:18:10;98382.59;;;16.63;100.00
31096;BME280;17749;51.962;8.560;2023-08-01T09:20:48;98375.53;;;16.33;100.00
31096;BME280;17749;51.962;8.560;2023-08-01T09:23:16;98384.84;;;16.19;100.00
31096;BME280;17749;51.962;8.560;2023-08-01T09:25:44;98396.56;;;16.18;100.00
31096;BME280;17749;51.962;8.560;2023-08-01T09:28:20;98389.41;;;16.38;100.00
31096;BME280;17749;51.962;8.560;2023-08-01T09:30:52;98395.50;;;16.89;100.00
31096;BME280;17749;51.962;8.560;2023-08-01T09:33:22;98404.50;;;17.27;100.00
31096;BME280;17749;51.962;8.560;2023-08-01T09:35:50;98395.97;;;17.41;100.00
31096;BME280;17749;51.962;8.560;2023-08-01T09:38:18;98404.50;;;17.27;100.00
31096;BME280;17749;51.962;8.560;2023-08-01T09:40:45;98408.34;;;17.05;100.00
31096;BME280;17749;51.962;8.560;2023-08-01T09:43:13;98395.50;;;16.89;100.00
31096;BME280;17749;51.962;8.560;2023-08-01T09:45:51;98386.97;;;16.45;100.00
31096;BME280;17749;51.962;8.560;2023-08-01T09:48:23;98389.97;;;16.42;100.00
31096;BME280;17749;51.962;8.560;2023-08-01T09:51:15;98398.19;;;16.70;100.00
31096;BME280;17749;51.962;8.560;2023-08-01T09:53:54;98397.94;;;17.39;100.00
31096;BME280;17749;51.962;8.560;2023-08-01T09:56:26;98394.19;;;18.25;100.00
31096;BME280;17749;51.962;8.560;2023-08-01T09:58:55;98391.38;;;18.80;100.00
31096;BME280;17749;51.962;8.560;2023-08-01T10:01:24;98381.41;;;19.24;100.00
31096;BME280;17749;51.962;8.560;2023-08-01T10:03:52;98369.44;;;19.53;100.00
31096;BME280;17749;51.962;8.560;2023-08-01T10:06:24;98367.03;;;19.42;100.00
31096;BME280;17749;51.962;8.560;2023-08-01T10:08:52;98351.22;;;19.21;100.00
31096;BME280;17749;51.962;8.560;2023-08-01T10:11:22;98365.84;;;18.92;100.00
31096;BME280;17749;51.962;8.560;2023-08-01T10:13:50;98351.91;;;18.61;100.00
31096;BME280;17749;51.962;8.560;2023-08-01T10:16:17;98354.03;;;18.04;100.00
31096;BME280;17749;51.962;8.560;2023-08-01T10:18:44;98374.78;;;17.66;100.00
31096;BME280;17749;51.962;8.560;2023-08-01T10:21:14;98375.41;;;17.87;100.00
31096;BME280;17749;51.962;8.560;2023-08-01T10:23:43;98379.25;;;18.30;100.00
31096;BME280;17749;51.962;8.560;2023-08-01T10:26:11;98376.41;;;18.68;100.00
31096;BME280;17749;51.962;8.560;2023-08-01T10:28:41;98367.22;;;18.96;100.00
31096;BME280;17749;51.962;8.560;2023-08-01T10:31:12;98372.75;;;19.39;100.00
31096;BME280;17749;51.962;8.560;2023-08-01T10:33:41;98364.88;;;19.80;100.00
31096;BME280;17749;51.962;8.560;2023-08-01T10:36:21;98350.06;;;19.84;100.00
31096;BME280;17749;51.962;8.560;2023-08-01T10:41:29;98352.56;;;19.85;100.00
31096;BME280;17749;51.962;8.560;2023-08-01T10:44:13;98353.91;;;19.47;100.00
31096;BME280;17749;51.962;8.560;2023-08-01T10:49:15;98356.31;;;18.80;100.00
31096;BME280;17749;51.962;8.560;2023-08-01T10:51:43;98364.78;;;18.67;100.00
31096;BME280;17749;51.962;8.560;2023-08-01T10:54:23;98371.47;;;18.99;100.00
31096;BME280;17749;51.962;8.560;2023-08-01T10:56:52;98365.38;;;19.23;100.00
31096;BME280;17749;51.962;8.560;2023-08-01T10:59:21;98359.84;;;19.24;100.00
31096;BME280;17749;51.962;8.560;2023-08-01T11:01:53;98363.41;;;19.33;100.00
31096;BME280;17749;51.962;8.560;2023-08-01T11:04:21;98360.25;;;19.12;100.00
31096;BME280;17749;51.962;8.560;2023-08-01T11:06:50;98357.19;;;19.07;100.00
31096;BME280;17749;51.962;8.560;2023-08-01T11:09:23;98359.50;;;19.01;100.00
31096;BME280;17749;51.962;8.560;2023-08-01T11:11:57;98351.22;;;19.21;100.00
31096;BME280;17749;51.962;8.560;2023-08-01T11:14:26;98344.75;;;19.40;100.00
31096;BME280;17749;51.962;8.560;2023-08-01T11:16:55;98351.03;;;19.22;100.00
31096;BME280;17749;51.962;8.560;2023-08-01T11:19:27;98373.50;;;18.97;100.00
31096;BME280;17749;51.962;8.560;2023-08-01T11:21:56;98391.19;;;18.64;100.00
31096;BME280;17749;51.962;8.560;2023-08-01T11:24:24;98393.53;;;18.13;100.00
31096;BME280;17749;51.962;8.560;2023-08-01T11:26:53;98394.22;;;17.50;100.00
31096;BME280;17749;51.962;8.560;2023-08-01T11:29:21;98422.50;;;17.17;100.00
31096;BME280;17749;51.962;8.560;2023-08-01T11:31:57;98436.53;;;16.91;100.00
31096;BME280;17749;51.962;8.560;2023-08-01T11:34:25;98443.56;;;16.73;100.00
31096;BME280;17749;51.962;8.560;2023-08-01T11:36:52;98450.63;;;16.44;100.00
31096;BME280;17749;51.962;8.560;2023-08-01T11:39:20;98446.09;;;16.35;100.00
31096;BME280;17749;51.962;8.560;2023-08-01T11:41:49;98443.25;;;16.37;100.00
31096;BME280;17749;51.962;8.560;2023-08-01T11:44:16;98446.38;;;16.42;100.00
31096;BME280;17749;51.962;8.560;2023-08-01T11:46:43;98448.09;;;16.62;100.00
31096;BME280;17749;51.962;8.560;2023-08-01T11:49:13;98454.16;;;16.55;100.00
31096;BME280;17749;51.962;8.560;2023-08-01T11:51:44;98449.25;;;16.70;100.00
31096;BME280;17749;51.962;8.560;2023-08-01T11:54:12;98447.56;;;16.78;100.00
31096;BME280;17749;51.962;8.560;2023-08-01T11:56:42;98451.97;;;16.99;100.00
31096;BME280;17749;51.962;8.560;2023-08-01T11:59:11;98449.22;;;17.28;100.00
31096;BME280;17749;51.962;8.560;2023-08-01T12:01:40;98454.66;;;17.65;100.00
31096;BME280;17749;51.962;8.560;2023-08-01T12:04:08;98451.84;;;18.04;100.00
31096;BME280;17749;51.962;8.560;2023-08-01T12:06:35;98435.88;;;18.21;100.00
31096;BME280;17749;51.962;8.560;2023-08-01T12:09:12;98445.63;;;18.49;100.00
31096;BME280;17749;51.962;8.560;2023-08-01T12:11:40;98450.44;;;18.73;100.00
31096;BME280;17749;51.962;8.560;2023-08-01T12:14:12;98439.75;;;18.81;100.00
31096;BME280;17749;51.962;8.560;2023-08-01T12:16:44;98448.31;;;18.95;100.00
31096;BME280;17749;51.962;8.560;2023-08-01T12:19:19;98453.06;;;19.01;100.00
31096;BME280;17749;51.962;8.560;2023-08-01T12:21:47;98452.06;;;19.02;100.00
31096;BME280;17749;51.962;8.560;2023-08-01T12:24:14;98449.53;;;19.18;100.00
31096;BME280;17749;51.962;8.560;2023-08-01T12:26:41;98449.91;;;19.23;100.00
31096;BME280;17749;51.962;8.560;2023-08-01T12:29:09;98445.97;;;19.44;100.00
31096;BME280;17749;51.962;8.560;2023-08-01T12:31:37;98445.69;;;19.47;100.00
31096;BME280;17749;51.962;8.560;2023-08-01T12:34:04;98447.97;;;19.86;100.00
31096;BME280;17749;51.962;8.560;2023-08-01T12:36:31;98440.97;;;20.09;100.00
31096;BME280;17749;51.962;8.560;2023-08-01T12:38:58;98429.53;;;20.16;100.00
31096;BME280;17749;51.962;8.560;2023-08-01T12:41:25;98425.75;;;20.00;100.00
31096;BME280;17749;51.962;8.560;2023-08-01T12:43:52;98422.03;;;20.01;100.00
31096;BME280;17749;51.962;8.560;2023-08-01T12:46:19;98428.06;;;19.87;100.00
31096;BME280;17749;51.962;8.560;2023-08-01T12:48:46;98456.06;;;19.60;100.00
31096;BME280;17749;51.962;8.560;2023-08-01T12:51:13;98488.00;;;19.20;100.00
31096;BME280;17749;51.962;8.560;2023-08-01T12:53:41;98436.78;;;18.57;100.00
31096;BME280;17749;51.962;8.560;2023-08-01T12:56:12;98459.97;;;18.22;100.00
31096;BME280;17749;51.962;8.560;2023-08-01T12:58:38;98462.13;;;17.91;100.00
31096;BME280;17749;51.962;8.560;2023-08-01T13:01:06;98481.69;;;17.83;100.00
31096;BME280;17749;51.962;8.560;2023-08-01T13:03:33;98484.25;;;17.85;100.00
31096;BME280;17749;51.962;8.560;2023-08-01T13:06:00;98499.69;;;17.73;100.00
31096;BME280;17749;51.962;8.560;2023-08-01T13:08:27;98515.28;;;17.69;100.00
31096;BME280;17749;51.962;8.560;2023-08-01T13:10:56;98526.59;;;17.73;100.00
31096;BME280;17749;51.962;8.560;2023-08-01T13:13:23;98503.69;;;17.69;100.00
31096;BME280;17749;51.962;8.560;2023-08-01T13:15:50;98510.63;;;17.62;100.00
31096;BME280;17749;51.962;8.560;2023-08-01T13:18:18;98505.25;;;17.62;100.00
31096;BME280;17749;51.962;8.560;2023-08-01T13:20:45;98503.38;;;17.72;100.00
31096;BME280;17749;51.962;8.560;2023-08-01T13:23:11;98506.34;;;17.88;100.00
31096;BME280;17749;51.962;8.560;2023-08-01T13:25:38;98499.47;;;18.04;100.00
31096;BME280;17749;51.962;8.560;2023-08-01T13:28:05;98498.56;;;18.13;100.00
31096;BME280;17749;51.962;8.560;2023-08-01T13:30:33;98497.28;;;18.17;100.00
31096;BME280;17749;51.962;8.560;2023-08-01T13:33:00;98503.09;;;18.22;100.00
31096;BME280;17749;51.962;8.560;2023-08-01T13:35:27;98503.88;;;18.32;100.00
31096;BME280;17749;51.962;8.560;2023-08-01T13:37:53;98502.69;;;18.45;100.00
31096;BME280;17749;51.962;8.560;2023-08-01T13:40:20;98493.47;;;18.47;100.00
31096;BME280;17749;51.962;8.560;2023-08-01T13:42:47;98488.16;;;18.55;100.00
31096;BME280;17749;51.962;8.560;2023-08-01T13:45:14;98496.41;;;18.81;100.00
31096;BME280;17749;51.962;8.560;2023-08-01T13:47:41;98486.59;;;18.80;100.00
31096;BME280;17749;51.962;8.560;2023-08-01T13:50:08;98488.00;;;18.85;100.00
31096;BME280;17749;51.962;8.560;2023-08-01T13:52:39;98488.06;;;18.93;100.00
31096;BME280;17749;51.962;8.560;2023-08-01T13:55:06;98486.13;;;19.03;100.00
31096;BME280;17749;51.962;8.560;2023-08-01T13:57:34;98471.47;;;19.23;100.00
31096;BME280;17749;51.962;8.560;2023-08-01T14:00:01;98473.59;;;19.38;100.00
31096;BME280;17749;51.962;8.560;2023-08-01T14:02:42;98480.25;;;19.25;100.00
31096;BME280;17749;51.962;8.560;2023-08-01T14:05:09;98495.91;;;19.22;100.00
31096;BME280;17749;51.962;8.560;2023-08-01T14:07:36;98475.81;;;18.98;100.00
31096;BME280;17749;51.962;8.560;2023-08-01T14:10:10;98475.69;;;18.72;100.00
31096;BME280;17749;51.962;8.560;2023-08-01T14:12:38;98473.63;;;18.66;100.00
31096;BME280;17749;51.962;8.560;2023-08-01T14:15:05;98485.22;;;18.49;100.00
31096;BME280;17749;51.962;8.560;2023-08-01T14:17:32;98497.50;;;18.33;100.00
31096;BME280;17749;51.962;8.560;2023-08-01T14:19:59;98526.06;;;18.26;100.00
31096;BME280;17749;51.962;8.560;2023-08-01T14:22:26;98522.13;;;18.11;100.00
31096;BME280;17749;51.962;8.560;2023-08-01T14:24:53;98524.16;;;17.99;100.00
31096;BME280;17749;51.962;8.560;2023-08-01T14:27:19;98522.59;;;17.96;100.00
31096;BME280;17749;51.962;8.560;2023-08-01T14:29:46;98523.91;;;17.92;100.00
31096;BME280;17749;51.962;8.560;2023-08-01T14:32:15;98521.34;;;17.91;100.00
31096;BME280;17749;51.962;8.560;2023-08-01T14:34:42;98515.94;;;18.01;100.00
31096;BME280;17749;51.962;8.560;2023-08-01T14:37:09;98525.66;;;18.21;100.00
31096;BME280;17749;51.962;8.560;2023-08-01T14:39:36;98515.88;;;18.48;100.00
31096;BME280;17749;51.962;8.560;2023-08-01T14:42:03;98519.94;;;18.52;100.00
31096;BME280;17749;51.962;8.560;2023-08-01T14:44:31;98511.91;;;18.70;100.00
31096;BME280;17749;51.962;8.560;2023-08-01T14:46:58;98510.84;;;18.80;100.00
31096;BME280;17749;51.962;8.560;2023-08-01T14:49:25;98510.03;;;18.98;100.00
31096;BME280;17749;51.962;8.560;2023-08-01T14:51:56;98513.13;;;19.03;100.00
31096;BME280;17749;51.962;8.560;2023-08-01T14:54:23;98512.50;;;19.09;100.00
31096;BME280;17749;51.962;8.560;2023-08-01T14:57:07;98508.81;;;19.10;100.00
31096;BME280;17749;51.962;8.560;2023-08-01T14:59:35;98507.47;;;19.32;100.00
31096;BME280;17749;51.962;8.560;2023-08-01T15:02:02;98507.72;;;19.39;100.00
31096;BME280;17749;51.962;8.560;2023-08-01T15:04:29;98505.28;;;19.54;100.00
31096;BME280;17749;51.962;8.560;2023-08-01T15:06:56;98508.16;;;19.52;100.00
31096;BME280;17749;51.962;8.560;2023-08-01T15:09:23;98503.84;;;19.41;100.00
31096;BME280;17749;51.962;8.560;2023-08-01T15:11:50;98502.78;;;19.34;100.00
31096;BME280;17749;51.962;8.560;2023-08-01T15:14:17;98507.03;;;19.19;100.00
31096;BME280;17749;51.962;8.560;2023-08-01T15:16:44;98509.78;;;19.09;100.00
31096;BME280;17749;51.962;8.560;2023-08-01T15:19:11;98510.34;;;18.95;100.00
31096;BME280;17749;51.962;8.560;2023-08-01T15:21:38;98511.63;;;18.91;100.00
31096;BME280;17749;51.962;8.560;2023-08-01T15:24:06;98516.66;;;19.03;100.00
31096;BME280;17749;51.962;8.560;2023-08-01T15:26:33;98512.34;;;19.29;100.00
31096;BME280;17749;51.962;8.560;2023-08-01T15:29:00;98518.66;;;19.37;100.00
31096;BME280;17749;51.962;8.560;2023-08-01T15:31:27;98518.25;;;19.32;100.00
31096;BME280;17749;51.962;8.560;2023-08-01T15:33:54;98526.13;;;19.25;100.00
31096;BME280;17749;51.962;8.560;2023-08-01T15:36:30;98519.28;;;19.13;100.00
31096;BME280;17749;51.962;8.560;2023-08-01T15:38:58;98520.75;;;18.90;100.00
31096;BME280;17749;51.962;8.560;2023-08-01T15:41:26;98521.84;;;18.69;100.00
31096;BME280;17749;51.962;8.560;2023-08-01T15:43:53;98532.34;;;18.45;100.00
31096;BME280;17749;51.962;8.560;2023-08-01T15:46:20;98543.59;;;18.30;100.00
31096;BME280;17749;51.962;8.560;2023-08-01T15:48:47;98543.84;;;18.00;100.00
31096;BME280;17749;51.962;8.560;2023-08-01T15:51:15;98542.75;;;17.92;100.00
31096;BME280;17749;51.962;8.560;2023-08-01T15:53:42;98550.00;;;17.82;100.00
31096;BME280;17749;51.962;8.560;2023-08-01T15:56:09;98551.97;;;17.70;100.00
31096;BME280;17749;51.962;8.560;2023-08-01T15:58:38;98563.88;;;17.68;100.00
31096;BME280;17749;51.962;8.560;2023-08-01T16:01:05;98559.38;;;17.59;100.00
31096;BME280;17749;51.962;8.560;2023-08-01T16:03:39;98552.84;;;17.51;100.00
31096;BME280;17749;51.962;8.560;2023-08-01T16:06:08;98563.19;;;17.46;100.00
31096;BME280;17749;51.962;8.560;2023-08-01T16:08:35;98560.66;;;17.35;100.00
31096;BME280;17749;51.962;8.560;2023-08-01T16:11:02;98559.94;;;17.33;100.00
31096;BME280;17749;51.962;8.560;2023-08-01T16:13:29;98561.50;;;17.26;100.00
31096;BME280;17749;51.962;8.560;2023-08-01T16:15:56;98560.81;;;17.24;100.00
31096;BME280;17749;51.962;8.560;2023-08-01T16:18:23;98561.94;;;17.31;100.00
31096;BME280;17749;51.962;8.560;2023-08-01T16:20:50;98559.38;;;17.39;100.00
31096;BME280;17749;51.962;8.560;2023-08-01T16:23:17;98549.16;;;17.52;100.00
31096;BME280;17749;51.962;8.560;2023-08-01T16:25:44;98557.41;;;17.61;100.00
31096;BME280;17749;51.962;8.560;2023-08-01T16:28:11;98554.97;;;17.67;100.00
31096;BME280;17749;51.962;8.560;2023-08-01T16:30:38;98547.16;;;17.74;100.00
31096;BME280;17749;51.962;8.560;2023-08-01T16:33:06;98546.03;;;17.77;100.00
31096;BME280;17749;51.962;8.560;2023-08-01T16:35:34;98549.41;;;17.79;100.00
31096;BME280;17749;51.962;8.560;2023-08-01T16:38:01;98550.00;;;17.72;100.00
31096;BME280;17749;51.962;8.560;2023-08-01T16:40:28;98557.63;;;17.77;100.00
31096;BME280;17749;51.962;8.560;2023-08-01T16:42:58;98549.16;;;17.82;100.00
31096;BME280;17749;51.962;8.560;2023-08-01T16:45:27;98544.94;;;17.79;100.00
31096;BME280;17749;51.962;8.560;2023-08-01T16:47:56;98557.38;;;17.80;100.00
31096;BME280;17749;51.962;8.560;2023-08-01T16:50:24;98546.59;;;17.80;100.00
31096;BME280;17749;51.962;8.560;2023-08-01T16:52:51;98553.69;;;17.81;100.00
31096;BME280;17749;51.962;8.560;2023-08-01T16:55:18;98551.16;;;17.80;100.00
31096;BME280;17749;51.962;8.560;2023-08-01T16:57:45;98549.69;;;17.75;100.00
31096;BME280;17749;51.962;8.560;2023-08-01T17:00:14;98553.41;;;17.74;100.00
31096;BME280;17749;51.962;8.560;2023-08-01T17:02:41;98554.53;;;17.72;100.00
31096;BME280;17749;51.962;8.560;2023-08-01T17:05:08;98561.34;;;17.66;100.00
31096;BME280;17749;51.962;8.560;2023-08-01T17:07:37;98569.56;;;17.65;100.00
31096;BME280;17749;51.962;8.560;2023-08-01T17:10:05;98569.00;;;17.61;100.00
31096;BME280;17749;51.962;8.560;2023-08-01T17:12:32;98576.38;;;17.49;100.00
31096;BME280;17749;51.962;8.560;2023-08-01T17:14:59;98583.72;;;17.47;100.00
31096;BME280;17749;51.962;8.560;2023-08-01T17:17:27;98585.13;;;17.42;100.00
31096;BME280;17749;51.962;8.560;2023-08-01T17:19:55;98588.00;;;17.40;100.00
31096;BME280;17749;51.962;8.560;2023-08-01T17:22:23;98592.78;;;17.37;100.00
31096;BME280;17749;51.962;8.560;2023-08-01T17:24:51;98593.38;;;17.30;100.00
31096;BME280;17749;51.962;8.560;2023-08-01T17:27:18;98592.09;;;17.25;100.00
31096;BME280;17749;51.962;8.560;2023-08-01T17:29:46;98603.25;;;17.20;100.00
31096;BME280;17749;51.962;8.560;2023-08-01T17:32:13;98593.22;;;17.13;100.00
31096;BME280;17749;51.962;8.560;2023-08-01T17:34:40;98604.53;;;17.06;100.00
31096;BME280;17749;51.962;8.560;2023-08-01T17:37:07;98596.88;;;17.02;100.00
31096;BME280;17749;51.962;8.560;2023-08-01T17:39:34;98603.25;;;17.01;100.00
31096;BME280;17749;51.962;8.560;2023-08-01T17:42:01;98597.59;;;17.04;100.00
31096;BME280;17749;51.962;8.560;2023-08-01T17:44:28;98589.97;;;17.09;100.00
31096;BME280;17749;51.962;8.560;2023-08-01T17:47:06;98606.53;;;17.14;100.00
31096;BME280;17749;51.962;8.560;2023-08-01T17:49:33;98603.97;;;17.13;100.00
31096;BME280;17749;51.962;8.560;2023-08-01T17:52:01;98599.59;;;17.12;100.00
31096;BME280;17749;51.962;8.560;2023-08-01T17:54:29;98604.97;;;17.12;100.00
31096;BME280;17749;51.962;8.560;2023-08-01T17:56:56;98604.97;;;17.12;100.00
31096;BME280;17749;51.962;8.560;2023-08-01T17:59:23;98610.34;;;17.12;100.00
31096;BME280;17749;51.962;8.560;2023-08-01T18:01:50;98607.50;;;17.13;100.00